Time;durP1;ratioP1;P1;durP2;ratioP2;P2;SDS_P1;SDS_P2;PMS_P1;PMS_P2;Temp;Humidity;BMP_temperature;BMP_pressure;BME280_temperature;BME280_humidity;BME280_pressure;Samples;Min_cycle;Max_cycle;Signal;HPM_P1;HPM_P2
2021/10/14 00:00:25;;;;;;;18.38;12.77;;;;;;;10.99;53.96;96283.38;4984914;28;20038;-72
2021/10/14 00:02:51;;;;;;;22.75;14.68;;;;;;;10.99;54.27;96275.41;4985093;28;20404;-72
2021/10/14 00:05:16;;;;;;;25.38;13.07;;;;;;;11.08;54.29;96289.72;4971488;28;20027;-72
2021/10/14 00:07:42;;;;;;;19.85;12.65;;;;;;;11.12;54.22;96291.53;4968708;28;20031;-72
2021/10/14 00:10:08;;;;;;;13.27;10.15;;;;;;;11.13;53.60;96287.00;4960167;28;20363;-73
2021/10/14 00:12:34;;;;;;;14.18;11.02;;;;;;;11.14;54.53;96288.59;4968460;28;20042;-72
2021/10/14 00:14:59;;;;;;;11.95;10.75;;;;;;;11.05;53.40;96271.63;4968674;28;20094;-72
2021/10/14 00:17:25;;;;;;;18.17;12.38;;;;;;;11.10;54.16;96288.34;4971841;28;20018;-72
2021/10/14 00:19:50;;;;;;;14.13;10.60;;;;;;;11.09;54.11;96280.63;4969568;28;20064;-72
2021/10/14 00:22:16;;;;;;;17.70;12.32;;;;;;;11.11;53.54;96278.50;4964756;28;20051;-72
2021/10/14 00:24:41;;;;;;;13.40;10.90;;;;;;;11.09;53.90;96275.31;4964658;28;20032;-72
2021/10/14 00:27:07;;;;;;;11.98;10.57;;;;;;;11.16;53.67;96281.13;4966734;28;20456;-71
2021/10/14 00:29:32;;;;;;;10.98;9.85;;;;;;;11.22;53.46;96285.34;4971087;28;20106;-72
2021/10/14 00:31:58;;;;;;;15.38;11.45;;;;;;;11.17;52.95;96277.38;4969522;28;20585;-72
2021/10/14 00:34:24;;;;;;;13.25;10.52;;;;;;;11.05;53.55;96268.94;4969232;28;20038;-71
2021/10/14 00:36:49;;;;;;;17.50;12.50;;;;;;;11.10;53.96;96260.91;4965327;28;20133;-72
2021/10/14 00:39:15;;;;;;;15.13;11.32;;;;;;;11.10;53.56;96267.03;4968803;28;20134;-72
2021/10/14 00:41:40;;;;;;;13.63;11.25;;;;;;;11.12;53.57;96261.47;4969496;28;20122;-72
2021/10/14 00:44:06;;;;;;;17.90;12.85;;;;;;;11.15;53.47;96263.53;4971146;28;20030;-72
2021/10/14 00:46:31;;;;;;;12.80;10.70;;;;;;;11.25;53.17;96274.09;4967976;28;20038;-72
2021/10/14 00:48:56;;;;;;;12.85;10.50;;;;;;;11.26;53.73;96270.41;4968936;28;20039;-72
2021/10/14 00:51:22;;;;;;;14.23;10.30;;;;;;;11.28;53.46;96259.44;4964699;28;20136;-72
2021/10/14 00:53:47;;;;;;;13.80;10.02;;;;;;;11.27;53.03;96255.19;4968630;28;20022;-71
2021/10/14 00:56:14;;;;;;;11.90;10.50;;;;;;;11.30;52.85;96259.94;4970978;28;20011;-72
2021/10/14 00:58:40;;;;;;;12.43;10.13;;;;;;;11.39;53.13;96264.38;4968702;28;20512;-72
2021/10/14 01:01:05;;;;;;;11.32;9.50;;;;;;;11.41;52.79;96266.75;4969478;28;20059;-72
2021/10/14 01:03:31;;;;;;;12.85;10.07;;;;;;;11.38;52.34;96264.69;4968902;28;20121;-70
2021/10/14 01:05:57;;;;;;;14.43;9.85;;;;;;;11.36;51.92;96272.13;4968771;28;20668;-72
2021/10/14 01:08:24;;;;;;;18.30;11.98;;;;;;;11.32;52.18;96268.47;4970646;28;20135;-72
2021/10/14 01:10:50;;;;;;;13.68;10.43;;;;;;;11.15;51.97;96260.88;4968582;28;20038;-72
2021/10/14 01:13:16;;;;;;;14.93;10.85;;;;;;;11.13;52.40;96265.69;4969023;28;20039;-72
2021/10/14 01:15:42;;;;;;;13.88;11.38;;;;;;;11.00;52.65;96258.34;4967822;28;20046;-73
2021/10/14 01:18:07;;;;;;;16.88;11.50;;;;;;;10.97;52.07;96270.34;4969204;28;20042;-72
2021/10/14 01:20:33;;;;;;;18.70;12.32;;;;;;;10.69;53.13;96261.22;4968944;28;20106;-72
2021/10/14 01:22:58;;;;;;;13.73;10.93;;;;;;;10.67;52.67;96256.19;4968912;28;20118;-71
2021/10/14 01:25:25;;;;;;;13.88;10.65;;;;;;;10.69;52.87;96269.22;4968742;28;21458;-72
2021/10/14 01:27:50;;;;;;;16.55;10.88;;;;;;;10.67;53.19;96264.19;4968941;28;20098;-72
2021/10/14 01:30:17;;;;;;;20.25;13.25;;;;;;;10.66;53.78;96270.56;4968521;28;20615;-72
2021/10/14 01:32:44;;;;;;;18.70;13.15;;;;;;;10.54;52.75;96266.66;4968282;28;20056;-72
2021/10/14 01:35:10;;;;;;;20.30;13.27;;;;;;;10.54;53.34;96274.63;4970621;28;20031;-72
2021/10/14 01:37:35;;;;;;;17.27;12.80;;;;;;;10.49;53.57;96262.16;4968166;28;20452;-72
2021/10/14 01:40:01;;;;;;;21.00;13.35;;;;;;;10.48;53.44;96271.22;4968260;28;20440;-72
2021/10/14 01:42:26;;;;;;;18.83;13.18;;;;;;;10.38;53.21;96248.13;4968772;28;20110;-72
2021/10/14 01:44:51;;;;;;;17.75;12.60;;;;;;;10.44;53.67;96264.88;4968565;28;20492;-72
2021/10/14 01:47:17;;;;;;;25.30;13.63;;;;;;;10.47;53.11;96269.63;4969519;28;20503;-73
2021/10/14 01:49:42;;;;;;;19.98;12.65;;;;;;;10.39;53.19;96256.94;4967306;28;20119;-73
2021/10/14 01:52:08;;;;;;;17.65;13.00;;;;;;;10.30;53.25;96256.69;4967140;28;20039;-73
2021/10/14 01:54:34;;;;;;;22.30;14.00;;;;;;;10.43;53.20;96271.25;4960591;28;20139;-72
2021/10/14 01:56:59;;;;;;;24.35;13.52;;;;;;;10.31;53.85;96247.66;4952198;28;20121;-71
2021/10/14 01:59:25;;;;;;;23.23;14.23;;;;;;;10.35;53.53;96248.69;4970227;28;20505;-71
2021/10/14 02:01:50;;;;;;;22.08;13.27;;;;;;;10.37;53.94;96259.84;4967185;28;20046;-70
2021/10/14 02:04:16;;;;;;;23.40;14.63;;;;;;;10.41;53.92;96274.19;4971647;28;20035;-71
2021/10/14 02:06:41;;;;;;;21.77;13.77;;;;;;;10.28;53.55;96256.16;4970999;28;20047;-71
2021/10/14 02:09:06;;;;;;;23.60;13.73;;;;;;;10.27;53.77;96262.56;4971362;28;20074;-71
2021/10/14 02:11:32;;;;;;;27.67;14.80;;;;;;;10.33;53.59;96264.09;4974024;28;20030;-71
2021/10/14 02:13:57;;;;;;;28.65;14.75;;;;;;;10.29;53.66;96263.09;4971952;28;20534;-73
2021/10/14 02:16:23;;;;;;;22.15;12.65;;;;;;;10.31;53.83;96254.81;4972138;28;20130;-71
2021/10/14 02:18:48;;;;;;;18.38;11.90;;;;;;;10.31;53.84;96252.97;4985485;28;20039;-71
2021/10/14 02:21:15;;;;;;;21.45;13.45;;;;;;;10.43;53.77;96259.81;4968966;28;20481;-71
2021/10/14 02:23:41;;;;;;;13.73;11.93;;;;;;;10.57;53.48;96269.56;4971454;28;20022;-71
2021/10/14 02:26:06;;;;;;;19.58;13.57;;;;;;;10.64;53.56;96274.56;4973663;28;20023;-73
2021/10/14 02:28:32;;;;;;;17.70;12.38;;;;;;;10.63;53.32;96275.66;4970443;28;20090;-73
2021/10/14 02:30:57;;;;;;;16.08;12.55;;;;;;;10.62;53.83;96285.50;4971628;28;20093;-73
2021/10/14 02:33:23;;;;;;;16.42;11.18;;;;;;;10.70;53.56;96273.50;4970096;28;20125;-73
2021/10/14 02:35:48;;;;;;;19.00;12.95;;;;;;;10.85;53.88;96273.38;4970229;28;20038;-73
2021/10/14 02:38:13;;;;;;;27.15;14.63;;;;;;;10.84;53.01;96263.78;4954199;28;20062;-73
2021/10/14 02:40:39;;;;;;;17.48;12.40;;;;;;;10.79;53.19;96271.00;4968072;28;20039;-73
2021/10/14 02:43:04;;;;;;;17.23;13.00;;;;;;;10.75;53.32;96254.00;4971108;28;20551;-73
2021/10/14 02:45:30;;;;;;;21.67;14.07;;;;;;;10.67;53.39;96252.75;4971647;28;20046;-74
2021/10/14 02:47:55;;;;;;;20.65;13.07;;;;;;;10.75;54.11;96257.50;4970456;28;20110;-73
2021/10/14 02:50:20;;;;;;;24.77;14.20;;;;;;;10.74;53.54;96255.88;4972979;28;20528;-73
2021/10/14 02:52:46;;;;;;;24.52;15.45;;;;;;;10.69;53.97;96231.97;4970306;28;20165;-73
2021/10/14 02:55:11;;;;;;;28.30;15.25;;;;;;;11.02;53.40;96254.34;4971289;28;20109;-73
2021/10/14 02:57:37;;;;;;;16.90;13.10;;;;;;;11.09;53.77;96251.34;4971365;28;20524;-73
2021/10/14 03:00:05;;;;;;;20.27;14.52;;;;;;;11.14;53.40;96248.66;4971058;28;20038;-73
2021/10/14 03:02:30;;;;;;;15.98;12.48;;;;;;;11.19;53.50;96251.25;4973362;28;20027;-73
2021/10/14 03:04:56;;;;;;;20.02;12.25;;;;;;;11.31;53.34;96254.38;4969745;28;20035;-71
2021/10/14 03:07:21;;;;;;;17.27;12.32;;;;;;;11.46;52.81;96245.41;4957036;28;20048;-71
2021/10/14 03:09:46;;;;;;;22.05;13.10;;;;;;;11.58;52.74;96247.69;4960757;28;20039;-74
2021/10/14 03:12:12;;;;;;;13.52;12.07;;;;;;;11.69;52.76;96246.50;4971209;28;20395;-73
2021/10/14 03:14:37;;;;;;;17.52;13.77;;;;;;;11.79;52.21;96259.72;4970397;28;20014;-73
2021/10/14 03:17:03;;;;;;;15.93;11.32;;;;;;;11.88;51.96;96252.72;4973187;28;20031;-73
2021/10/14 03:19:28;;;;;;;14.07;12.60;;;;;;;11.99;52.00;96273.94;4970807;28;20432;-73
2021/10/14 03:21:53;;;;;;;14.23;12.07;;;;;;;12.00;51.92;96259.53;4961242;28;20083;-77
2021/10/14 03:24:19;;;;;;;14.82;12.43;;;;;;;12.05;51.45;96260.25;4956957;28;20472;-74
2021/10/14 03:26:44;;;;;;;13.52;12.05;;;;;;;12.10;51.65;96252.19;4969824;28;20114;-71
2021/10/14 03:29:09;;;;;;;15.85;11.82;;;;;;;12.18;51.26;96254.22;4972474;28;20089;-70
2021/10/14 03:31:35;;;;;;;13.10;11.23;;;;;;;12.33;50.94;96269.22;4970812;28;20031;-73
2021/10/14 03:34:00;;;;;;;15.48;12.27;;;;;;;12.36;50.83;96271.31;4970728;28;20031;-72
2021/10/14 03:36:26;;;;;;;17.15;12.48;;;;;;;12.40;51.15;96275.00;4970371;28;20042;-73
2021/10/14 03:38:51;;;;;;;15.70;12.77;;;;;;;12.44;50.62;96262.69;4972227;28;20089;-73
2021/10/14 03:41:16;;;;;;;19.23;14.18;;;;;;;12.55;50.66;96278.56;4983168;28;20027;-73
2021/10/14 03:43:42;;;;;;;16.10;12.52;;;;;;;12.57;50.84;96271.03;4961293;28;20035;-73
2021/10/14 03:46:07;;;;;;;16.95;12.95;;;;;;;12.67;50.39;96273.56;4970483;28;20085;-73
2021/10/14 03:48:33;;;;;;;17.30;13.65;;;;;;;12.78;50.37;96264.31;4970341;28;20043;-73
2021/10/14 03:50:58;;;;;;;15.25;13.65;;;;;;;12.72;50.09;96257.47;4969006;28;20046;-73
2021/10/14 03:53:23;;;;;;;17.63;13.23;;;;;;;12.75;50.04;96262.25;4971641;28;20121;-73
2021/10/14 03:55:49;;;;;;;15.80;13.85;;;;;;;12.65;49.94;96246.38;4970383;28;20027;-73
2021/10/14 03:58:14;;;;;;;19.45;15.55;;;;;;;12.79;50.26;96267.78;4969284;28;20042;-73
2021/10/14 04:00:39;;;;;;;18.92;15.77;;;;;;;12.73;49.96;96261.72;4970101;28;20126;-72
2021/10/14 04:03:05;;;;;;;23.02;15.30;;;;;;;12.62;50.10;96247.75;4970232;28;20023;-72
2021/10/14 04:05:30;;;;;;;23.33;16.08;;;;;;;12.59;50.16;96253.69;4972034;28;20054;-73
2021/10/14 04:07:55;;;;;;;26.65;17.42;;;;;;;12.59;50.26;96260.88;4969514;28;20413;-73
2021/10/14 04:10:21;;;;;;;23.02;16.05;;;;;;;12.54;50.49;96261.75;4969205;28;20045;-73
2021/10/14 04:12:46;;;;;;;21.08;16.25;;;;;;;12.51;50.47;96264.19;4969608;28;20065;-73
2021/10/14 04:15:12;;;;;;;20.73;16.27;;;;;;;12.55;50.69;96273.22;4969957;28;20042;-72
2021/10/14 04:17:37;;;;;;;21.20;15.30;;;;;;;12.58;50.78;96264.63;4984837;28;20473;-68
2021/10/14 04:20:04;;;;;;;22.67;17.20;;;;;;;12.67;50.73;96273.56;4971319;28;20023;-73
2021/10/14 04:22:29;;;;;;;25.02;17.55;;;;;;;12.72;50.42;96284.97;4958708;28;20031;-72
2021/10/14 04:24:55;;;;;;;24.55;16.38;;;;;;;12.74;50.14;96272.16;4960222;28;20493;-73
2021/10/14 04:27:21;;;;;;;21.35;15.55;;;;;;;12.82;50.11;96276.03;4968554;28;20050;-73
2021/10/14 04:29:46;;;;;;;22.92;16.05;;;;;;;12.89;50.18;96271.09;4969282;28;20023;-72
2021/10/14 04:32:12;;;;;;;24.45;17.33;;;;;;;12.97;49.98;96267.78;4971307;28;20035;-73
2021/10/14 04:34:38;;;;;;;24.27;16.45;;;;;;;13.01;49.86;96265.31;4969153;28;20039;-73
2021/10/14 04:37:06;;;;;;;24.52;16.23;;;;;;;13.03;49.85;96268.50;4969291;28;20104;-72
2021/10/14 04:39:33;;;;;;;21.00;16.75;;;;;;;13.03;49.53;96263.16;4961168;28;20544;-73
2021/10/14 04:41:58;;;;;;;26.08;16.67;;;;;;;13.04;49.61;96262.06;4969103;28;20468;-73
2021/10/14 04:44:23;;;;;;;25.88;15.98;;;;;;;13.15;49.39;96268.03;4971034;28;20027;-74
2021/10/14 04:46:49;;;;;;;20.63;16.15;;;;;;;13.10;49.41;96250.19;4969743;28;20113;-71
2021/10/14 04:49:15;;;;;;;18.95;15.35;;;;;;;13.15;49.19;96255.44;4969249;28;20431;-73
2021/10/14 04:51:40;;;;;;;19.35;15.63;;;;;;;13.14;49.04;96255.75;4965709;28;20512;-73
2021/10/14 04:54:06;;;;;;;20.95;15.23;;;;;;;13.10;49.09;96263.56;4953417;28;20058;-73
2021/10/14 04:56:31;;;;;;;18.33;14.82;;;;;;;13.06;49.19;96256.44;4970750;28;20023;-73
2021/10/14 04:58:56;;;;;;;22.20;16.08;;;;;;;13.00;49.25;96255.72;4968463;28;20513;-72
2021/10/14 05:01:22;;;;;;;22.80;16.33;;;;;;;13.02;49.12;96266.91;4968918;28;20053;-73
2021/10/14 05:03:47;;;;;;;18.75;15.18;;;;;;;12.94;49.00;96252.31;4968876;28;20100;-73
2021/10/14 05:06:13;;;;;;;20.35;14.70;;;;;;;12.97;49.09;96253.63;4968971;28;20039;-73
2021/10/14 05:08:39;;;;;;;22.08;15.60;;;;;;;12.94;48.97;96257.66;4949868;28;20027;-72
2021/10/14 05:11:09;;;;;;;21.25;15.68;;;;;;;12.96;48.99;96250.16;4970862;28;20035;-74
2021/10/14 05:13:34;;;;;;;18.40;14.63;;;;;;;12.96;48.95;96252.84;4968649;28;20134;-72
2021/10/14 05:16:00;;;;;;;17.65;14.82;;;;;;;13.08;48.80;96275.63;4969113;28;20177;-72
2021/10/14 05:18:26;;;;;;;17.48;14.02;;;;;;;13.09;48.85;96269.19;4968924;28;20039;-73
2021/10/14 05:20:52;;;;;;;21.13;14.60;;;;;;;13.13;48.83;96267.53;4968575;28;20177;-73
2021/10/14 05:23:17;;;;;;;22.10;15.93;;;;;;;13.18;48.54;96264.78;4970665;28;20469;-71
2021/10/14 05:25:42;;;;;;;19.85;13.35;;;;;;;13.18;48.64;96267.44;4968498;28;20034;-77
2021/10/14 05:28:08;;;;;;;22.38;15.38;;;;;;;13.21;48.50;96265.03;4968187;28;20037;-74
2021/10/14 05:30:33;;;;;;;20.15;15.13;;;;;;;13.22;48.18;96271.16;4981871;28;20078;-70
2021/10/14 05:32:59;;;;;;;20.30;15.18;;;;;;;13.32;47.99;96273.66;4970266;28;20030;-69
2021/10/14 05:35:24;;;;;;;25.33;17.63;;;;;;;13.30;48.08;96270.47;4971593;28;20027;-69
2021/10/14 05:37:49;;;;;;;18.85;14.82;;;;;;;13.42;48.05;96276.16;4970839;28;20047;-81
2021/10/14 05:40:15;;;;;;;20.25;14.38;;;;;;;13.41;47.61;96276.44;4986791;28;20117;-68
2021/10/14 05:42:40;;;;;;;26.95;14.40;;;;;;;13.31;47.96;96274.75;4965408;28;20043;-76
2021/10/14 05:45:06;;;;;;;16.83;14.02;;;;;;;13.44;47.81;96284.66;4955673;28;20113;-71
2021/10/14 05:47:31;;;;;;;16.98;13.23;;;;;;;13.46;47.91;96284.38;4974340;28;20060;-72
2021/10/14 05:49:57;;;;;;;17.70;13.85;;;;;;;13.52;47.62;96291.22;4971997;28;20042;-68
2021/10/14 05:52:22;;;;;;;18.92;13.43;;;;;;;13.53;47.56;96296.28;4971973;28;20563;-75
2021/10/14 05:54:48;;;;;;;20.23;12.73;;;;;;;13.62;47.71;96295.59;4972246;28;20515;-71
2021/10/14 05:57:13;;;;;;;18.38;14.05;;;;;;;13.67;47.20;96290.97;4972381;28;20122;-69
2021/10/14 05:59:39;;;;;;;15.75;13.40;;;;;;;13.76;47.27;96307.09;4972170;28;20025;-71
2021/10/14 06:02:04;;;;;;;17.92;12.18;;;;;;;13.79;47.10;96299.28;4974707;28;20146;-75
2021/10/14 06:04:29;;;;;;;15.10;12.70;;;;;;;13.85;46.73;96293.84;4972455;28;20409;-78
2021/10/14 06:06:55;;;;;;;15.82;13.10;;;;;;;13.94;46.53;96298.22;4989679;28;20488;-80
2021/10/14 06:09:20;;;;;;;14.57;12.77;;;;;;;13.96;46.75;96300.56;4972993;28;20471;-78
2021/10/14 06:11:45;;;;;;;16.90;12.43;;;;;;;13.90;46.69;96283.03;4972473;28;20442;-68
2021/10/14 06:14:11;;;;;;;19.30;14.00;;;;;;;14.07;46.55;96306.53;4973917;28;20097;-72
2021/10/14 06:16:36;;;;;;;14.95;12.30;;;;;;;14.08;46.61;96298.22;4971974;28;20069;-71
2021/10/14 06:19:02;;;;;;;15.40;13.30;;;;;;;14.18;46.15;96300.69;4971379;28;20039;-71
2021/10/14 06:21:27;;;;;;;16.05;13.13;;;;;;;14.28;46.20;96303.16;4971956;28;20425;-72
2021/10/14 06:23:53;;;;;;;13.23;11.88;;;;;;;14.32;46.05;96301.44;4955383;28;20470;-72
2021/10/14 06:26:18;;;;;;;14.80;13.00;;;;;;;14.39;45.42;96292.25;4972103;28;20568;-72
2021/10/14 06:28:43;;;;;;;14.45;12.95;;;;;;;14.50;45.52;96302.47;4971287;28;20066;-72
2021/10/14 06:31:09;;;;;;;14.82;13.18;;;;;;;14.53;45.50;96307.22;4971446;28;20042;-72
2021/10/14 06:33:34;;;;;;;13.43;11.63;;;;;;;14.56;45.45;96303.94;4971486;28;20043;-71
2021/10/14 06:36:00;;;;;;;12.60;11.25;;;;;;;14.62;45.14;96307.28;4971610;28;20410;-72
2021/10/14 06:38:25;;;;;;;13.75;11.30;;;;;;;14.66;45.12;96308.28;4959631;28;20054;-72
2021/10/14 06:40:51;;;;;;;11.38;10.27;;;;;;;14.73;44.95;96321.25;4969534;28;20122;-72
2021/10/14 06:43:16;;;;;;;12.60;11.30;;;;;;;14.71;44.78;96316.22;4962260;28;20070;-78
2021/10/14 06:45:42;;;;;;;12.40;10.52;;;;;;;14.82;44.79;96322.13;4962564;28;20039;-78
2021/10/14 06:48:07;;;;;;;13.57;10.15;;;;;;;14.82;44.43;96312.22;4973943;28;20489;-78
2021/10/14 06:50:33;;;;;;;11.85;10.75;;;;;;;14.93;44.59;96325.38;4988298;28;20441;-72
2021/10/14 06:52:59;;;;;;;12.80;10.70;;;;;;;15.05;44.58;96317.63;4970562;28;20053;-70
2021/10/14 06:55:25;;;;;;;12.82;10.38;;;;;;;15.25;44.30;96327.03;4970808;28;20408;-69
2021/10/14 06:57:50;;;;;;;10.60;9.48;;;;;;;15.30;43.96;96333.09;4971154;28;20042;-71
2021/10/14 07:00:20;;;;;;;10.77;9.68;;;;;;;15.35;43.39;96318.75;4970685;28;20031;-71
2021/10/14 07:02:46;;;;;;;11.73;10.40;;;;;;;15.50;43.70;96318.38;4969734;28;20027;-71
2021/10/14 07:05:11;;;;;;;11.05;9.85;;;;;;;15.47;43.08;96327.06;4973025;28;20045;-71
2021/10/14 07:07:37;;;;;;;9.93;8.93;;;;;;;15.63;43.32;96311.41;4964840;28;20031;-71
2021/10/14 07:10:03;;;;;;;10.98;9.05;;;;;;;15.82;43.11;96327.28;4962687;28;20043;-71
2021/10/14 07:12:29;;;;;;;10.25;9.25;;;;;;;15.92;42.96;96326.22;4970375;28;20038;-71
2021/10/14 07:14:55;;;;;;;10.68;8.95;;;;;;;15.96;42.97;96322.59;4969303;28;20042;-71
2021/10/14 07:17:21;;;;;;;11.05;9.98;;;;;;;16.07;42.80;96337.34;4972845;28;20030;-71
2021/10/14 07:19:47;;;;;;;10.70;9.73;;;;;;;16.08;42.42;96328.19;4970392;28;20453;-71
2021/10/14 07:22:12;;;;;;;10.00;9.18;;;;;;;15.95;41.68;96329.06;4968109;28;20035;-71
2021/10/14 07:24:41;;;;;;;9.73;8.75;;;;;;;16.16;42.30;96340.06;4959005;28;20030;-71
2021/10/14 07:27:09;;;;;;;9.65;8.75;;;;;;;16.37;42.08;96333.03;4970369;28;20079;-71
2021/10/14 07:29:35;;;;;;;10.85;9.32;;;;;;;16.55;41.47;96325.03;4972164;28;20125;-71
2021/10/14 07:32:01;;;;;;;9.73;8.68;;;;;;;16.58;41.23;96329.75;4970671;28;20046;-71
2021/10/14 07:34:26;;;;;;;9.82;8.82;;;;;;;16.60;41.00;96320.28;4969019;28;20039;-71
2021/10/14 07:36:52;;;;;;;9.60;8.70;;;;;;;16.78;40.79;96325.72;4970782;28;20066;-71
2021/10/14 07:39:18;;;;;;;8.98;8.15;;;;;;;16.91;40.95;96327.47;4969336;28;20038;-71
2021/10/14 07:41:46;;;;;;;8.98;8.07;;;;;;;16.98;40.63;96330.47;4969797;28;20396;-72
2021/10/14 07:44:16;;;;;;;9.50;8.13;;;;;;;17.00;40.35;96322.91;4971987;28;20027;-71
2021/10/14 07:46:42;;;;;;;8.25;7.47;;;;;;;16.74;40.62;96330.16;4970702;28;20047;-79
2021/10/14 07:49:08;;;;;;;8.13;7.43;;;;;;;16.99;40.88;96331.25;4969977;28;20046;-72
2021/10/14 07:51:35;;;;;;;7.97;7.03;;;;;;;16.92;40.14;96325.56;4969523;28;20043;-74
2021/10/14 07:54:01;;;;;;;7.40;6.47;;;;;;;17.22;40.25;96330.00;4957090;28;20054;-72
2021/10/14 07:56:26;;;;;;;8.50;7.60;;;;;;;17.39;39.79;96329.19;4971669;28;20362;-72
2021/10/14 07:58:52;;;;;;;6.88;6.28;;;;;;;17.48;39.12;96330.00;4969586;28;20042;-72
2021/10/14 08:01:17;;;;;;;6.03;5.43;;;;;;;17.71;39.05;96327.09;4968842;28;20097;-72
2021/10/14 08:03:42;;;;;;;7.05;5.70;;;;;;;17.89;38.80;96329.44;4969558;28;20119;-72
2021/10/14 08:06:08;;;;;;;6.57;5.00;;;;;;;17.84;38.16;96324.25;4970025;28;20042;-73
2021/10/14 08:08:33;;;;;;;6.00;5.40;;;;;;;17.90;37.87;96322.94;4959996;28;20594;-71
2021/10/14 08:10:59;;;;;;;7.32;5.82;;;;;;;18.03;38.28;96325.78;4967972;28;20090;-72
2021/10/14 08:13:25;;;;;;;6.15;5.47;;;;;;;18.04;37.90;96327.34;4957425;28;20044;-72
2021/10/14 08:15:52;;;;;;;5.63;5.10;;;;;;;17.75;38.29;96314.59;4960411;28;20125;-72
2021/10/14 08:18:19;;;;;;;5.72;5.10;;;;;;;17.57;38.06;96309.25;4970532;28;20031;-79
2021/10/14 08:20:45;;;;;;;6.00;5.05;;;;;;;17.86;38.23;96323.91;4969913;28;20058;-73
2021/10/14 08:23:11;;;;;;;5.50;4.90;;;;;;;17.81;37.34;96324.09;4969973;28;20097;-72
2021/10/14 08:25:36;;;;;;;5.10;4.60;;;;;;;17.50;38.89;96324.28;4968491;28;20492;-73
2021/10/14 08:28:02;;;;;;;4.50;3.88;;;;;;;16.99;39.08;96323.97;4969423;28;20034;-72
2021/10/14 08:30:27;;;;;;;6.22;4.15;;;;;;;17.57;38.93;96322.69;4969095;28;20046;-72
2021/10/14 08:32:54;;;;;;;5.20;4.07;;;;;;;17.66;38.28;96320.00;4969453;28;20046;-72
2021/10/14 08:35:20;;;;;;;5.43;3.65;;;;;;;17.99;37.83;96312.16;4971430;28;20031;-73
2021/10/14 08:37:47;;;;;;;4.68;3.67;;;;;;;18.32;37.71;96325.00;4969244;28;20125;-73
2021/10/14 08:40:13;;;;;;;5.20;4.13;;;;;;;18.61;37.09;96319.63;4968734;28;20046;-73
2021/10/14 08:42:40;;;;;;;4.65;3.95;;;;;;;18.91;36.58;96311.53;4964574;28;20078;-73
2021/10/14 08:45:08;;;;;;;3.80;3.45;;;;;;;19.14;36.10;96326.28;4966230;28;20062;-73
2021/10/14 08:47:33;;;;;;;4.15;3.75;;;;;;;18.47;36.61;96320.97;4971245;28;20026;-73
2021/10/14 08:49:59;;;;;;;3.60;3.30;;;;;;;18.07;36.69;96318.63;4968923;28;20118;-72
2021/10/14 08:52:26;;;;;;;6.03;3.22;;;;;;;18.27;36.81;96320.63;4967329;28;20070;-73
2021/10/14 08:54:51;;;;;;;4.25;3.05;;;;;;;16.21;39.77;96302.34;4972372;28;20050;-71
2021/10/14 08:57:17;;;;;;;3.08;2.85;;;;;;;15.70;40.88;96327.84;4967530;28;20433;-72
2021/10/14 08:59:42;;;;;;;4.00;2.92;;;;;;;15.88;41.00;96328.75;4962295;28;20057;-72
2021/10/14 09:02:08;;;;;;;2.90;2.40;;;;;;;14.63;42.69;96337.53;4971067;28;20085;-71
2021/10/14 09:04:39;;;;;;;2.70;2.50;;;;;;;14.75;43.04;96337.84;4964155;28;20466;-72
2021/10/14 09:07:25;;;;;;;2.55;2.35;;;;;;;14.67;43.46;96335.84;4961631;28;20042;-71
2021/10/14 09:09:51;;;;;;;3.67;2.85;;;;;;;14.34;44.06;96327.94;4958878;28;20098;-72
2021/10/14 09:12:19;;;;;;;3.90;2.70;;;;;;;16.78;39.88;96323.03;4968033;28;20031;-72
2021/10/14 09:15:01;;;;;;;3.45;2.22;;;;;;;14.70;42.37;96330.69;4968601;28;20073;-72
2021/10/14 09:17:50;;;;;;;2.53;2.30;;;;;;;14.16;43.42;96331.50;4969443;28;20047;-71
2021/10/14 09:20:24;;;;;;;3.17;2.40;;;;;;;15.92;40.83;96321.66;4967342;28;20057;-72
2021/10/14 09:23:16;;;;;;;3.47;2.58;;;;;;;15.50;41.23;96312.22;4968380;28;20061;-71
2021/10/14 09:25:46;;;;;;;;;;;;;;;16.64;39.65;96309.72;4962542;28;20035;-72
2021/10/14 09:28:13;;;;;;;3.88;2.50;;;;;;;14.88;41.79;96320.13;4959876;28;19926;-73
2021/10/14 09:30:44;;;;;;;2.40;2.20;;;;;;;15.91;39.83;96313.91;4957009;28;20058;-72
2021/10/14 09:33:47;;;;;;;2.30;2.15;;;;;;;17.31;38.69;96311.19;4968362;28;20043;-71
2021/10/14 09:36:28;;;;;;;2.40;2.20;;;;;;;18.18;37.64;96298.31;4969120;28;20468;-71
2021/10/14 09:39:03;;;;;;;2.92;2.70;;;;;;;18.23;35.56;96308.13;4967929;28;20157;-72
2021/10/14 09:41:31;;;;;;;3.15;2.85;;;;;;;15.93;39.00;96311.72;4970236;28;20436;-72
2021/10/14 09:44:05;;;;;;;2.25;2.05;;;;;;;15.57;40.26;96315.28;4973831;23;20081;-66
2021/10/14 09:46:42;;;;;;;4.32;2.42;;;;;;;13.67;43.50;96316.91;4960577;28;20039;-66
2021/10/14 09:49:13;;;;;;;4.93;2.70;;;;;;;15.42;40.09;96307.63;4968159;28;20397;-65
2021/10/14 09:51:40;;;;;;;2.22;2.13;;;;;;;15.51;40.45;96314.63;4968547;28;20039;-66
2021/10/14 09:54:06;;;;;;;3.03;2.22;;;;;;;16.30;38.06;96303.16;4967513;28;20535;-65
2021/10/14 09:56:33;;;;;;;3.63;2.60;;;;;;;15.83;39.78;96321.59;4970229;28;20102;-66
2021/10/14 09:59:01;;;;;;;2.78;2.58;;;;;;;17.53;37.18;96313.69;4967774;28;20127;-66
2021/10/14 10:01:31;;;;;;;2.30;2.10;;;;;;;17.47;36.18;96320.34;4968322;28;20580;-66
2021/10/14 10:03:58;;;;;;;4.32;3.00;;;;;;;18.36;35.03;96302.47;4967996;28;20035;-67
2021/10/14 10:06:29;;;;;;;3.00;2.60;;;;;;;18.55;34.94;96309.34;4968453;28;20077;-67
2021/10/14 10:08:58;;;;;;;2.83;2.63;;;;;;;18.89;34.81;96297.59;4967372;28;20037;-70
2021/10/14 10:11:24;;;;;;;3.08;2.70;;;;;;;19.71;34.12;96290.53;4970027;28;20114;-70
2021/10/14 10:13:55;;;;;;;3.17;2.88;;;;;;;16.51;37.75;96308.72;4988216;28;20058;-70
2021/10/14 10:16:25;;;;;;;5.00;3.00;;;;;;;14.59;43.16;96304.41;4988106;28;20026;-70
2021/10/14 10:18:52;;;;;;;3.30;3.03;;;;;;;14.76;42.37;96305.38;4987182;28;20510;-71
2021/10/14 10:21:33;;;;;;;4.85;3.25;;;;;;;16.05;39.97;96307.34;4987728;28;20121;-71
2021/10/14 10:24:03;;;;;;;3.67;2.95;;;;;;;16.61;39.29;96303.06;4988069;28;20092;-70
2021/10/14 10:26:35;;;;;;;5.00;3.03;;;;;;;16.30;39.52;96308.53;4992938;28;20022;-70
2021/10/14 10:29:12;;;;;;;3.00;2.70;;;;;;;14.48;43.65;96314.56;4990678;28;20118;-70
2021/10/14 10:31:51;;;;;;;3.00;2.80;;;;;;;15.25;41.80;96317.13;4991356;28;20053;-70
2021/10/14 10:40:18;;;;;;;3.90;3.17;;;;;;;15.36;41.46;96304.28;4989797;28;20101;-61
2021/10/14 10:43:04;;;;;;;7.68;3.22;;;;;;;16.05;41.53;96306.53;4984078;28;20511;-63
2021/10/14 10:45:41;;;;;;;3.28;2.90;;;;;;;17.21;39.08;96303.44;4991170;28;20411;-68
2021/10/14 10:48:07;;;;;;;3.38;3.08;;;;;;;17.64;37.56;96293.38;4989976;28;20046;-69
2021/10/14 10:50:32;;;;;;;3.63;3.33;;;;;;;17.71;37.58;96290.22;4991296;28;20031;-70
2021/10/14 10:53:07;;;;;;;5.13;3.20;;;;;;;17.29;37.45;96289.19;4989142;28;20046;-75
2021/10/14 10:55:36;;;;;;;4.07;2.90;;;;;;;16.45;39.70;96283.13;4990831;28;20039;-75
2021/10/14 10:58:03;;;;;;;3.20;2.90;;;;;;;15.15;41.03;96289.75;4990871;28;20508;-73
2021/10/14 11:00:28;;;;;;;3.67;2.88;;;;;;;16.36;39.59;96266.22;4997281;28;20634;-69
2021/10/14 11:03:23;;;;;;;3.25;2.80;;;;;;;17.87;37.64;96266.31;5009849;28;20029;-69
2021/10/14 11:05:56;;;;;;;6.45;3.00;;;;;;;15.86;39.45;96279.94;5010203;28;20109;-69
2021/10/14 11:08:27;;;;;;;2.85;2.65;;;;;;;15.52;39.70;96275.19;5008371;28;20036;-69
2021/10/14 11:10:56;;;;;;;3.83;2.55;;;;;;;15.17;40.31;96272.28;4988847;28;20041;-70
2021/10/14 11:13:23;;;;;;;2.97;2.03;;;;;;;16.75;37.28;96262.66;4998952;28;20042;-70
2021/10/14 11:15:54;;;;;;;3.45;2.60;;;;;;;17.66;36.15;96241.97;5010176;28;20041;-71
2021/10/14 11:18:21;;;;;;;7.18;3.10;;;;;;;17.33;36.73;96249.81;5009648;28;20042;-70
2021/10/14 11:20:53;;;;;;;4.05;2.70;;;;;;;18.47;35.21;96250.91;5009314;28;20022;-72
2021/10/14 11:23:19;;;;;;;4.15;2.80;;;;;;;19.44;34.69;96237.91;5007610;28;20037;-71
2021/10/14 11:25:59;;;;;;;2.80;2.47;;;;;;;20.07;32.96;96240.38;4988538;28;20046;-69
2021/10/14 11:28:25;;;;;;;6.38;2.45;;;;;;;20.76;31.88;96227.81;5000944;28;20104;-70